Analena — CQHL — position and weather

sailwx.info

Track history (hours):
 
Tides and Currents Weather Stations Pressure Air Temp Water Temp Dewpoint Dewpoint Depression Visibility Wind Speed Wind Dir Waves Ship Positions

Analena

Last reported at 2018-Mar-11 09:17 UTC. Time now 2018-Apr-20 16:20 UTC.
Position N 36°58' E 012°09'.
Warning: this ship's position is 40 days out of date.

Length 134 m; draft 8.5 m.

Type: Cargo ship. MMSI: 255805587.

Date/timePositionNaut miles runAvg speedWind from/ knotsBaromVisibWave heightAir tempDewpointWater temp
2018-Mar-11 09:17N 36°58' E 012°09'1214.1
2018-Mar-11 08:25N 36°51' E 012°22'615.7
2018-Mar-11 08:00N 36°47' E 012°28'816.1
2018-Mar-11 07:30N 36°42' E 012°36'814.7
2018-Mar-11 06:59N 36°38' E 012°44'713.7
2018-Mar-11 06:30N 36°34' E 012°51'713.8
2018-Mar-11 05:59N 36°30' E 012°58'714.1
2018-Mar-11 05:30N 36°27' E 013°06'714.1
2018-Mar-11 05:00N 36°23' E 013°13'714.2
2018-Mar-11 04:30N 36°19' E 013°21'714.3
2018-Mar-11 04:00N 36°16' E 013°28'714.5
2018-Mar-11 03:30N 36°12' E 013°35'714.3
2018-Mar-11 03:00N 36°07' E 013°43'713.8
2018-Mar-11 02:29N 36°04' E 013°50'714.2
2018-Mar-11 02:00N 35°60' E 013°57'814.4
2018-Mar-11 01:29N 35°56' E 014°05'714.4
2018-Mar-11 01:00N 35°52' E 014°12'714.2
2018-Mar-11 00:30N 35°48' E 014°20'713.3
2018-Mar-10 23:56N 35°46' E 014°28'510.7
2018-Mar-10 23:29N 35°49' E 014°33'1 2.3
2018-Mar-10 22:59N 35°49' E 014°32'0 0.0
2018-Mar-10 22:23N 35°49' E 014°32'0 0.0
2018-Mar-10 21:47N 35°49' E 014°32'0 0.0
2018-Mar-10 00:58N 35°49' E 014°32'2 3.7
2018-Mar-10 00:30N 35°48' E 014°34'0 0.7
2018-Mar-09 23:59N 35°48' E 014°34'1 1.6
2018-Mar-09 23:28N 35°48' E 014°35'2 4.5
2018-Mar-09 23:00N 35°49' E 014°38'4 9.0
2018-Mar-09 22:30N 35°50' E 014°43'0 0.2
2018-Mar-09 22:00N 35°50' E 014°43'0 0.0
2018-Mar-09 21:30N 35°50' E 014°43'0 0.0
2018-Mar-09 21:00N 35°50' E 014°43'0 0.0
2018-Mar-09 20:27N 35°50' E 014°43'0 0.1
2018-Mar-09 20:00N 35°50' E 014°43'0 0.0
2018-Mar-09 19:30N 35°50' E 014°43'0 0.0
2018-Mar-09 19:00N 35°50' E 014°43'0 0.0
2018-Mar-09 18:24N 35°50' E 014°43'0 0.0
2018-Mar-09 18:00N 35°50' E 014°43'0 0.0
2018-Mar-09 17:30N 35°50' E 014°43'0 0.0
2018-Mar-09 17:00N 35°50' E 014°43'0 0.0
2018-Mar-09 16:30N 35°50' E 014°43'0 0.0
2018-Mar-09 16:00N 35°50' E 014°43'0 0.0
2018-Mar-09 15:30N 35°50' E 014°43'0 0.0
2018-Mar-09 15:00N 35°50' E 014°43'0 0.0
2018-Mar-09 14:30N 35°50' E 014°43'0 0.0
2018-Mar-09 14:00N 35°50' E 014°43'0 0.1
2018-Mar-09 13:30N 35°51' E 014°43'0 0.0
2018-Mar-09 13:00N 35°51' E 014°43'0 0.0
2018-Mar-09 12:30N 35°51' E 014°43'0 0.0
2018-Mar-09 11:57N 35°51' E 014°43'0 0.1
2018-Mar-09 11:27N 35°51' E 014°43'0 0.0
2018-Mar-09 11:00N 35°51' E 014°43'0 0.0
2018-Mar-09 10:30N 35°51' E 014°43'0 0.0
2018-Mar-09 09:51N 35°51' E 014°43'0 0.1
2018-Mar-09 09:30N 35°50' E 014°43'0 0.1
2018-Mar-09 09:00N 35°50' E 014°43'0 0.0
2018-Mar-09 08:27N 35°50' E 014°43'0 0.0
2018-Mar-09 08:00N 35°50' E 014°43'0 0.1
2018-Mar-09 07:21N 35°50' E 014°43'0 0.0
2018-Mar-09 06:57N 35°50' E 014°43'0 0.1
2018-Mar-09 06:24N 35°50' E 014°43'0 0.0
2018-Mar-09 05:54N 35°50' E 014°43'0 0.1
2018-Mar-09 05:30N 35°50' E 014°43'0 0.0
2018-Mar-09 04:54N 35°50' E 014°43'0 0.1
2018-Mar-09 04:30N 35°50' E 014°43'0 0.0
2018-Mar-09 04:00N 35°50' E 014°43'0 0.1
2018-Mar-09 03:30N 35°50' E 014°43'0 0.0
2018-Mar-09 03:00N 35°50' E 014°43'0 0.0
2018-Mar-09 02:30N 35°50' E 014°43'0 0.1
2018-Mar-09 02:00N 35°50' E 014°43'0 0.0
2018-Mar-09 01:21N 35°50' E 014°43'0 0.0
2018-Mar-09 01:00N 35°50' E 014°43'0 0.0
2018-Mar-09 00:00N 35°50' E 014°43'0 0.0
2018-Mar-08 23:30N 35°50' E 014°43'0 0.0
2018-Mar-08 23:00N 35°50' E 014°43'0 0.0
2018-Mar-08 22:30N 35°50' E 014°43'0 0.0
2018-Mar-08 22:00N 35°50' E 014°43'0 0.0
2018-Mar-08 21:30N 35°50' E 014°43'0 0.1
2018-Mar-08 21:00N 35°50' E 014°43'0 0.0
2018-Mar-08 20:24N 35°50' E 014°43'  
2018-Mar-01 22:21N 35°56' E 012°36'616.4
2018-Mar-01 22:00N 35°56' E 012°43'816.5
2018-Mar-01 21:30N 35°55' E 012°53'816.3
2018-Mar-01 21:00N 35°54' E 013°03'815.9
2018-Mar-01 20:30N 35°53' E 013°13'815.6
2018-Mar-01 20:00N 35°52' E 013°23'713.6
2018-Mar-01 19:28N 35°51' E 013°31'613.1
2018-Mar-01 19:00N 35°50' E 013°39'713.3
2018-Mar-01 18:30N 35°50' E 013°47'713.5
2018-Mar-01 18:00N 35°49' E 013°55'713.6
2018-Mar-01 17:30N 35°48' E 014°04'713.6
2018-Mar-01 16:58N 35°46' E 014°12'613.8
2018-Mar-01 16:30N 35°46' E 014°20'713.2
2018-Mar-01 15:57N 35°46' E 014°29'4 9.1
2018-Mar-01 15:30N 35°49' E 014°33'  
Track history (hours):
 
Tides and Currents Weather Stations Pressure Air Temp Water Temp Dewpoint Dewpoint Depression Visibility Wind Speed Wind Dir Waves Ship Positions

Analena

Last reported at 2018-Mar-11 09:17 UTC. Time now 2018-Apr-20 16:20 UTC.
Position N 36°58' E 012°09'.
Warning: this ship's position is 40 days out of date.

Length 134 m; draft 8.5 m.

Type: Cargo ship. MMSI: 255805587.

Date/timePositionNaut miles runAvg speedWind from/ knotsBaromVisibWave heightAir tempDewpointWater temp
2018-Mar-11 09:17N 36°58' E 012°09'1214.1
2018-Mar-11 08:25N 36°51' E 012°22'615.7
2018-Mar-11 08:00N 36°47' E 012°28'816.1
2018-Mar-11 07:30N 36°42' E 012°36'814.7
2018-Mar-11 06:59N 36°38' E 012°44'713.7
2018-Mar-11 06:30N 36°34' E 012°51'713.8
2018-Mar-11 05:59N 36°30' E 012°58'714.1
2018-Mar-11 05:30N 36°27' E 013°06'714.1
2018-Mar-11 05:00N 36°23' E 013°13'714.2
2018-Mar-11 04:30N 36°19' E 013°21'714.3
2018-Mar-11 04:00N 36°16' E 013°28'714.5
2018-Mar-11 03:30N 36°12' E 013°35'714.3
2018-Mar-11 03:00N 36°07' E 013°43'713.8
2018-Mar-11 02:29N 36°04' E 013°50'714.2
2018-Mar-11 02:00N 35°60' E 013°57'814.4
2018-Mar-11 01:29N 35°56' E 014°05'714.4
2018-Mar-11 01:00N 35°52' E 014°12'714.2
2018-Mar-11 00:30N 35°48' E 014°20'713.3
2018-Mar-10 23:56N 35°46' E 014°28'510.7
2018-Mar-10 23:29N 35°49' E 014°33'1 2.3
2018-Mar-10 22:59N 35°49' E 014°32'0 0.0
2018-Mar-10 22:23N 35°49' E 014°32'0 0.0
2018-Mar-10 21:47N 35°49' E 014°32'0 0.0
2018-Mar-10 00:58N 35°49' E 014°32'2 3.7
2018-Mar-10 00:30N 35°48' E 014°34'0 0.7
2018-Mar-09 23:59N 35°48' E 014°34'1 1.6
2018-Mar-09 23:28N 35°48' E 014°35'2 4.5
2018-Mar-09 23:00N 35°49' E 014°38'4 9.0
2018-Mar-09 22:30N 35°50' E 014°43'0 0.2
2018-Mar-09 22:00N 35°50' E 014°43'0 0.0
2018-Mar-09 21:30N 35°50' E 014°43'0 0.0
2018-Mar-09 21:00N 35°50' E 014°43'0 0.0
2018-Mar-09 20:27N 35°50' E 014°43'0 0.1
2018-Mar-09 20:00N 35°50' E 014°43'0 0.0
2018-Mar-09 19:30N 35°50' E 014°43'0 0.0
2018-Mar-09 19:00N 35°50' E 014°43'0 0.0
2018-Mar-09 18:24N 35°50' E 014°43'0 0.0
2018-Mar-09 18:00N 35°50' E 014°43'0 0.0
2018-Mar-09 17:30N 35°50' E 014°43'0 0.0
2018-Mar-09 17:00N 35°50' E 014°43'0 0.0
2018-Mar-09 16:30N 35°50' E 014°43'0 0.0
2018-Mar-09 16:00N 35°50' E 014°43'0 0.0
2018-Mar-09 15:30N 35°50' E 014°43'0 0.0
2018-Mar-09 15:00N 35°50' E 014°43'0 0.0
2018-Mar-09 14:30N 35°50' E 014°43'0 0.0
2018-Mar-09 14:00N 35°50' E 014°43'0 0.1
2018-Mar-09 13:30N 35°51' E 014°43'0 0.0
2018-Mar-09 13:00N 35°51' E 014°43'0 0.0
2018-Mar-09 12:30N 35°51' E 014°43'0 0.0
2018-Mar-09 11:57N 35°51' E 014°43'0 0.1
2018-Mar-09 11:27N 35°51' E 014°43'0 0.0
2018-Mar-09 11:00N 35°51' E 014°43'0 0.0
2018-Mar-09 10:30N 35°51' E 014°43'0 0.0
2018-Mar-09 09:51N 35°51' E 014°43'0 0.1
2018-Mar-09 09:30N 35°50' E 014°43'0 0.1
2018-Mar-09 09:00N 35°50' E 014°43'0 0.0
2018-Mar-09 08:27N 35°50' E 014°43'0 0.0
2018-Mar-09 08:00N 35°50' E 014°43'0 0.1
2018-Mar-09 07:21N 35°50' E 014°43'0 0.0
2018-Mar-09 06:57N 35°50' E 014°43'0 0.1
2018-Mar-09 06:24N 35°50' E 014°43'0 0.0
2018-Mar-09 05:54N 35°50' E 014°43'0 0.1
2018-Mar-09 05:30N 35°50' E 014°43'0 0.0
2018-Mar-09 04:54N 35°50' E 014°43'0 0.1
2018-Mar-09 04:30N 35°50' E 014°43'0 0.0
2018-Mar-09 04:00N 35°50' E 014°43'0 0.1
2018-Mar-09 03:30N 35°50' E 014°43'0 0.0
2018-Mar-09 03:00N 35°50' E 014°43'0 0.0
2018-Mar-09 02:30N 35°50' E 014°43'0 0.1
2018-Mar-09 02:00N 35°50' E 014°43'0 0.0
2018-Mar-09 01:21N 35°50' E 014°43'0 0.0
2018-Mar-09 01:00N 35°50' E 014°43'0 0.0
2018-Mar-09 00:00N 35°50' E 014°43'0 0.0
2018-Mar-08 23:30N 35°50' E 014°43'0 0.0
2018-Mar-08 23:00N 35°50' E 014°43'0 0.0
2018-Mar-08 22:30N 35°50' E 014°43'0 0.0
2018-Mar-08 22:00N 35°50' E 014°43'0 0.0
2018-Mar-08 21:30N 35°50' E 014°43'0 0.1
2018-Mar-08 21:00N 35°50' E 014°43'0 0.0
2018-Mar-08 20:24N 35°50' E 014°43'  
2018-Mar-01 22:21N 35°56' E 012°36'616.4
2018-Mar-01 22:00N 35°56' E 012°43'816.5
2018-Mar-01 21:30N 35°55' E 012°53'816.3
2018-Mar-01 21:00N 35°54' E 013°03'815.9
2018-Mar-01 20:30N 35°53' E 013°13'815.6
2018-Mar-01 20:00N 35°52' E 013°23'713.6
2018-Mar-01 19:28N 35°51' E 013°31'613.1
2018-Mar-01 19:00N 35°50' E 013°39'713.3
2018-Mar-01 18:30N 35°50' E 013°47'713.5
2018-Mar-01 18:00N 35°49' E 013°55'713.6
2018-Mar-01 17:30N 35°48' E 014°04'713.6
2018-Mar-01 16:58N 35°46' E 014°12'613.8
2018-Mar-01 16:30N 35°46' E 014°20'713.2
2018-Mar-01 15:57N 35°46' E 014°29'4 9.1
2018-Mar-01 15:30N 35°49' E 014°33'  

Dump ship's entire track history